Vejrstation Sortsø Strand
Vejrstation Sortsø Strands historiske vejrdata
 
Daily Summary for July 15, 2024 Units:  Metric    English   Both
Daily Weekly Monthly Yearly Custom
  Current: High: Low: Average:
Temperature: 20.4 °C 20.5 °C 14.4 °C 16.1 °C
Dew Point: 14.3 °C 14.8 °C 11.0 °C 12.4 °C
Humidity: 68% 82% 68% 79%
Wind Speed: 29km/h 30km/h 0km/h 11.5km/h
Wind Gust: 16km/h 21km/h - -
WindSW - - SW
Pressure: 1011.0 hPa 1011.2 hPa 1010.7 hPa -
Precipitation: 0.00 mm      
Historical Graphs
 
 
Tabular Data for July 15, 2024
Time Temperature Dew Point Pressure Wind Wind Speed Wind Gust Humidity Rainfall Rate (Hourly) solar
00:04 14.8 °C 11.3 °C 1011.1 hPa Calm     80% 0.00 mm 0.00 W/m2
00:09 14.7 °C 11.3 °C 1011.1 hPa Calm     80% 0.00 mm 0.00 W/m2
00:14 14.7 °C 11.3 °C 1011.1 hPa SW 6 km/h 5 km/h 80% 0.00 mm 0.00 W/m2
00:19 14.7 °C 11.3 °C 1011.2 hPa SW 8 km/h 5 km/h 80% 0.00 mm 0.00 W/m2
00:24 14.7 °C 11.3 °C 1011.2 hPa SW 8 km/h 4 km/h 80% 0.00 mm 0.00 W/m2
00:29 14.7 °C 11.3 °C 1011.2 hPa SW 8 km/h 5 km/h 80% 0.00 mm 0.00 W/m2
00:34 14.7 °C 11.3 °C 1011.1 hPa SW 8 km/h 4 km/h 80% 0.00 mm 0.00 W/m2
00:39 14.7 °C 11.3 °C 1011.0 hPa SW 7 km/h 1 km/h 80% 0.00 mm 0.00 W/m2
00:44 14.7 °C 11.3 °C 1011.0 hPa SW 10 km/h 6 km/h 80% 0.00 mm 0.00 W/m2
00:49 14.7 °C 11.3 °C 1010.8 hPa SW 10 km/h 4 km/h 80% 0.00 mm 0.00 W/m2
00:54 14.8 °C 11.3 °C 1010.9 hPa SW 6 km/h 3 km/h 80% 0.00 mm 0.00 W/m2
00:59 14.8 °C 11.3 °C 1010.9 hPa Calm     80% 0.00 mm 0.00 W/m2
01:04 14.8 °C 11.3 °C 1010.9 hPa SW 6 km/h 3 km/h 80% 0.00 mm 0.00 W/m2
01:09 14.7 °C 11.3 °C 1010.9 hPa SW 6 km/h 3 km/h 80% 0.00 mm 0.00 W/m2
01:14 14.6 °C 11.2 °C 1010.9 hPa SW 10 km/h 4 km/h 80% 0.00 mm 0.00 W/m2
01:19 14.6 °C 11.2 °C 1010.8 hPa SW 6 km/h 1 km/h 80% 0.00 mm 0.00 W/m2
01:24 14.5 °C 11.1 °C 1010.8 hPa SW 6 km/h 3 km/h 80% 0.00 mm 0.00 W/m2
01:29 14.6 °C 11.2 °C 1010.9 hPa SW 6 km/h 3 km/h 80% 0.00 mm 0.00 W/m2
01:34 14.5 °C 11.1 °C 1010.8 hPa SW 6 km/h 4 km/h 80% 0.00 mm 0.00 W/m2
01:39 14.5 °C 11.1 °C 1010.8 hPa SW 6 km/h 4 km/h 80% 0.00 mm 0.00 W/m2
01:44 14.5 °C 11.1 °C 1010.8 hPa SW 2 km/h   80% 0.00 mm 0.00 W/m2
01:49 14.5 °C 11.1 °C 1010.9 hPa SW 2 km/h   80% 0.00 mm 0.00 W/m2
01:54 14.4 °C 11.1 °C 1010.9 hPa SW 6 km/h 3 km/h 80% 0.00 mm 0.00 W/m2
01:59 14.4 °C 11.0 °C 1010.9 hPa SW 6 km/h 4 km/h 80% 0.00 mm 0.00 W/m2
02:04 14.4 °C 11.0 °C 1010.9 hPa SW 8 km/h 5 km/h 80% 0.00 mm 0.00 W/m2
02:09 14.4 °C 11.0 °C 1010.9 hPa SW 7 km/h 3 km/h 80% 0.00 mm 0.00 W/m2
02:14 14.4 °C 11.1 °C 1011.0 hPa SW 15 km/h 7 km/h 80% 0.00 mm 0.00 W/m2
02:19 14.5 °C 11.1 °C 1011.0 hPa SW 10 km/h 5 km/h 80% 0.00 mm 0.00 W/m2
02:24 14.6 °C 11.2 °C 1011.0 hPa SW 9 km/h 3 km/h 80% 0.00 mm 0.00 W/m2
02:29 14.7 °C 11.3 °C 1011.0 hPa SW 6 km/h 3 km/h 80% 0.00 mm 0.00 W/m2
02:34 14.8 °C 11.3 °C 1011.0 hPa SW 6 km/h 5 km/h 80% 0.00 mm 0.00 W/m2
02:39 14.8 °C 11.4 °C 1011.0 hPa SW 6 km/h 4 km/h 80% 0.00 mm 0.00 W/m2
02:44 14.8 °C 11.4 °C 1011.0 hPa SW 6 km/h 3 km/h 80% 0.00 mm 0.00 W/m2
02:49 14.8 °C 11.4 °C 1011.1 hPa SW 8 km/h 5 km/h 80% 0.00 mm 0.00 W/m2
02:54 14.8 °C 11.4 °C 1011.1 hPa SW 6 km/h 2 km/h 80% 0.00 mm 0.00 W/m2
02:59 14.8 °C 11.3 °C 1011.1 hPa SW 8 km/h 4 km/h 80% 0.00 mm 0.00 W/m2
03:04 14.8 °C 11.6 °C 1011.1 hPa SW 7 km/h 4 km/h 81% 0.00 mm 0.00 W/m2
03:09 14.8 °C 11.6 °C 1011.1 hPa SW 8 km/h 4 km/h 81% 0.00 mm 0.00 W/m2
03:14 14.8 °C 11.6 °C 1011.1 hPa SW 6 km/h 5 km/h 81% 0.00 mm 0.00 W/m2
03:19 14.8 °C 11.6 °C 1011.1 hPa SW 10 km/h 4 km/h 81% 0.00 mm 0.00 W/m2
03:24 14.7 °C 11.5 °C 1011.1 hPa SW 6 km/h 3 km/h 81% 0.00 mm 0.00 W/m2
03:29 14.7 °C 11.5 °C 1011.0 hPa Calm     81% 0.00 mm 0.00 W/m2
03:34 14.7 °C 11.4 °C 1011.0 hPa Calm     81% 0.00 mm 0.00 W/m2
03:39 14.7 °C 11.4 °C 1010.9 hPa Calm     81% 0.00 mm 0.00 W/m2
03:44 14.6 °C 11.4 °C 1010.9 hPa SW 6 km/h 3 km/h 81% 0.00 mm 0.00 W/m2
03:49 14.6 °C 11.4 °C 1010.9 hPa SW 6 km/h 3 km/h 81% 0.00 mm 0.00 W/m2
03:54 14.6 °C 11.3 °C 1010.9 hPa SW 6 km/h 4 km/h 81% 0.00 mm 0.00 W/m2
03:59 14.5 °C 11.3 °C 1010.8 hPa SW 6 km/h 4 km/h 81% 0.00 mm 0.00 W/m2
04:04 14.6 °C 11.3 °C 1010.8 hPa SW 10 km/h 4 km/h 81% 0.00 mm 0.00 W/m2
04:09 14.6 °C 11.3 °C 1010.8 hPa SW 7 km/h 3 km/h 81% 0.00 mm 0.00 W/m2
04:14 14.7 °C 11.7 °C 1010.8 hPa SW 10 km/h 5 km/h 82% 0.00 mm 0.00 W/m2
04:19 14.9 °C 11.9 °C 1010.8 hPa SW 13 km/h 8 km/h 82% 0.00 mm 0.00 W/m2
04:24 15.1 °C 12.1 °C 1010.8 hPa SW 11 km/h 6 km/h 82% 0.00 mm 0.00 W/m2
04:29 15.3 °C 12.2 °C 1010.8 hPa SW 11 km/h 6 km/h 82% 0.00 mm 0.00 W/m2
04:34 15.5 °C 12.4 °C 1010.8 hPa SW 10 km/h 6 km/h 82% 0.00 mm 0.00 W/m2
04:39 15.6 °C 12.6 °C 1010.8 hPa SW 15 km/h 6 km/h 82% 0.00 mm 0.00 W/m2
04:44 15.6 °C 12.6 °C 1010.8 hPa SW 11 km/h 4 km/h 82% 0.00 mm 0.00 W/m2
04:49 15.6 °C 12.6 °C 1010.8 hPa SW 8 km/h 5 km/h 82% 0.00 mm 0.00 W/m2
04:54 15.6 °C 12.6 °C 1010.8 hPa SW 11 km/h 8 km/h 82% 0.00 mm 0.00 W/m2
04:59 15.6 °C 12.6 °C 1010.7 hPa SW 10 km/h 6 km/h 82% 0.00 mm 0.00 W/m2
05:04 15.6 °C 12.5 °C 1010.8 hPa SW 15 km/h 8 km/h 82% 0.00 mm 0.00 W/m2
05:09 15.6 °C 12.5 °C 1010.8 hPa SW 8 km/h 5 km/h 82% 0.00 mm 0.00 W/m2
05:14 15.6 °C 12.5 °C 1010.8 hPa SW 11 km/h 3 km/h 82% 0.00 mm 0.00 W/m2
05:19 15.5 °C 12.4 °C 1010.7 hPa SW 10 km/h 5 km/h 82% 0.00 mm 0.00 W/m2
05:24 15.4 °C 12.4 °C 1010.7 hPa SW 19 km/h 6 km/h 82% 0.00 mm 0.00 W/m2
05:29 15.4 °C 12.3 °C 1010.7 hPa SW 8 km/h 5 km/h 82% 0.00 mm 0.00 W/m2
05:34 15.3 °C 12.3 °C 1010.7 hPa SW 10 km/h 6 km/h 82% 0.00 mm 0.00 W/m2
05:39 15.4 °C 12.4 °C 1010.7 hPa SW 10 km/h 4 km/h 82% 0.00 mm 0.00 W/m2
05:44 15.6 °C 12.5 °C 1010.7 hPa SW 15 km/h 7 km/h 82% 0.00 mm 0.00 W/m2
05:49 15.6 °C 12.5 °C 1010.7 hPa SW 6 km/h 1 km/h 82% 0.00 mm 0.00 W/m2
05:54 15.6 °C 12.5 °C 1010.7 hPa SW 10 km/h 2 km/h 82% 0.00 mm 0.00 W/m2
05:59 15.6 °C 12.5 °C 1010.7 hPa SW 11 km/h 7 km/h 82% 0.00 mm 0.00 W/m2
06:04 15.6 °C 12.6 °C 1010.7 hPa SW 15 km/h 8 km/h 82% 0.00 mm 0.00 W/m2
06:09 15.6 °C 12.6 °C 1010.7 hPa SW 7 km/h 5 km/h 82% 0.00 mm 0.00 W/m2
06:14 15.6 °C 12.5 °C 1010.8 hPa SW 10 km/h 5 km/h 82% 0.00 mm 0.00 W/m2
06:19 15.6 °C 12.5 °C 1010.8 hPa SW 10 km/h 5 km/h 82% 0.00 mm 0.00 W/m2
06:24 15.6 °C 12.5 °C 1010.8 hPa SW 10 km/h 3 km/h 82% 0.00 mm 0.00 W/m2
06:29 15.6 °C 12.6 °C 1010.8 hPa SSW 8 km/h 5 km/h 82% 0.00 mm 0.00 W/m2
06:34 15.7 °C 12.6 °C 1010.8 hPa SW 6 km/h 4 km/h 82% 0.00 mm 0.00 W/m2
06:39 15.6 °C 12.6 °C 1010.7 hPa SW 6 km/h 5 km/h 82% 0.00 mm 0.00 W/m2
06:44 15.7 °C 12.7 °C 1010.8 hPa SW 6 km/h 4 km/h 82% 0.00 mm 0.00 W/m2
06:49 15.9 °C 12.8 °C 1010.8 hPa SW 6 km/h 5 km/h 82% 0.00 mm 0.00 W/m2
06:54 16.1 °C 13.0 °C 1010.8 hPa SW 6 km/h 3 km/h 82% 0.00 mm 0.00 W/m2
06:59 16.2 °C 13.1 °C 1010.8 hPa SW 8 km/h 4 km/h 82% 0.00 mm 0.00 W/m2
07:04 16.2 °C 13.2 °C 1010.8 hPa SW 11 km/h 7 km/h 82% 0.00 mm 0.00 W/m2
07:09 16.2 °C 12.9 °C 1010.8 hPa SW 11 km/h 7 km/h 81% 0.00 mm 0.00 W/m2
07:14 16.3 °C 13.0 °C 1010.9 hPa SW 11 km/h 7 km/h 81% 0.00 mm 0.00 W/m2
07:19 16.3 °C 13.0 °C 1010.9 hPa SW 9 km/h 5 km/h 81% 0.00 mm 0.00 W/m2
07:24 16.4 °C 13.1 °C 1010.9 hPa SW 10 km/h 6 km/h 81% 0.00 mm 0.00 W/m2
07:29 16.6 °C 13.2 °C 1010.8 hPa SW 11 km/h 7 km/h 81% 0.00 mm 0.00 W/m2
07:34 16.7 °C 13.2 °C 1010.8 hPa SW 9 km/h 5 km/h 80% 0.00 mm 0.00 W/m2
07:39 16.7 °C 13.2 °C 1010.8 hPa SW 11 km/h 6 km/h 80% 0.00 mm 0.00 W/m2
07:44 16.7 °C 13.3 °C 1010.9 hPa SW 11 km/h 7 km/h 80% 0.00 mm 0.00 W/m2
07:49 16.7 °C 13.3 °C 1010.9 hPa SW 11 km/h 6 km/h 80% 0.00 mm 0.00 W/m2
07:54 16.9 °C 13.4 °C 1010.9 hPa SW 9 km/h 6 km/h 80% 0.00 mm 0.00 W/m2
07:59 17.1 °C 13.6 °C 1010.9 hPa SW 11 km/h 7 km/h 80% 0.00 mm 0.00 W/m2
08:04 17.3 °C 13.8 °C 1011.0 hPa SSW 17 km/h 9 km/h 80% 0.00 mm 0.00 W/m2
08:09 17.6 °C 13.9 °C 1010.9 hPa SSW 15 km/h 9 km/h 80% 0.00 mm 0.00 W/m2
08:14 17.8 °C 14.2 °C 1011.0 hPa SW 17 km/h 11 km/h 79% 0.00 mm 0.00 W/m2
08:19 18.3 °C 14.4 °C 1010.9 hPa SW 23 km/h 15 km/h 79% 0.00 mm 0.00 W/m2
08:24 18.6 °C 14.6 °C 1010.9 hPa SW 19 km/h 11 km/h 78% 0.00 mm 0.00 W/m2
08:29 18.8 °C 14.7 °C 1011.0 hPa SW 21 km/h 13 km/h 77% 0.00 mm 0.00 W/m2
08:34 19.1 °C 14.8 °C 1011.0 hPa SW 20 km/h 14 km/h 77% 0.00 mm 0.00 W/m2
08:39 19.2 °C 14.8 °C 1011.1 hPa SW 26 km/h 18 km/h 76% 0.00 mm 0.00 W/m2
08:44 19.2 °C 14.4 °C 1011.1 hPa SW 28 km/h 19 km/h 74% 0.00 mm 0.00 W/m2
08:49 19.2 °C 14.3 °C 1011.1 hPa SW 28 km/h 19 km/h 73% 0.00 mm 0.00 W/m2
08:54 19.3 °C 14.4 °C 1011.0 hPa SW 26 km/h 18 km/h 73% 0.00 mm 0.00 W/m2
08:59 19.4 °C 14.3 °C 1011.0 hPa SW 26 km/h 16 km/h 72% 0.00 mm 0.00 W/m2
09:04 19.6 °C 14.4 °C 1011.0 hPa SW 30 km/h 16 km/h 72% 0.00 mm 0.00 W/m2
09:09 19.7 °C 14.2 °C 1011.0 hPa SW 24 km/h 17 km/h 71% 0.00 mm 0.00 W/m2
09:14 19.8 °C 14.2 °C 1011.0 hPa WSW 24 km/h 14 km/h 70% 0.00 mm 0.00 W/m2
09:19 19.8 °C 14.0 °C 1011.0 hPa SW 28 km/h 18 km/h 69% 0.00 mm 0.00 W/m2
09:24 19.8 °C 14.0 °C 1011.0 hPa SW 30 km/h 21 km/h 69% 0.00 mm 0.00 W/m2
09:29 19.9 °C 14.1 °C 1011.0 hPa SW 28 km/h 17 km/h 69% 0.00 mm 0.00 W/m2
09:34 20.0 °C 14.1 °C 1011.0 hPa SW 28 km/h 17 km/h 69% 0.00 mm 0.00 W/m2
09:39 20.1 °C 14.2 °C 1011.0 hPa SW 26 km/h 17 km/h 69% 0.00 mm 0.00 W/m2
09:44 20.3 °C 14.3 °C 1011.0 hPa WSW 21 km/h 12 km/h 69% 0.00 mm 0.00 W/m2
09:49 20.3 °C 14.2 °C 1011.0 hPa SW 26 km/h 18 km/h 68% 0.00 mm 0.00 W/m2
09:54 20.4 °C 14.3 °C 1011.0 hPa SW 22 km/h 12 km/h 68% 0.00 mm 0.00 W/m2
09:59 20.5 °C 14.4 °C 1011.0 hPa SW 28 km/h 20 km/h 68% 0.00 mm 0.00 W/m2
10:04 20.4 °C 14.3 °C 1011.0 hPa SW 29 km/h 16 km/h 68% 0.00 mm 0.00 W/m2
Vejrstation Sortsø Strand
Compliments of Weather Underground - 1.5 mb

© 2006-2024 strandvejr.dk